SBMQ Airport Information

Runway Information
Runway 8 Length 6890 ft width 148 ft
Elevation 0 ft Threshold 0 ft Heading 0
Runway 26 Length 6890 ft Width 148 ft
Elevation 0 ft Threshold 0 ft Heading 0
Airport Frequencies
Type APP Name APP Frequency 119 MHZ
Type TWR Name TWR Frequency 118 MHZ
Airport Navaids
Type VOR-DME Name Macapa Frequency 112000 KHZ
Type NDB Name Macapa Frequency 215 KHZ
Airport Weather Information & NOTAM
ADDS - METARS form results

(0123 UTC 15 August 2020)
Data provider http://aviationweather.gov/metar/data/
 
METAR text: SBMQ 150100Z 03007KT 9999 SCT015 28/26 Q1011
Conditions at: SBMQ (MACAPA INTL AIRP, BR) observed 0100 UTC 15 August 2020
Temperature: 28.0°C (82°F)
Dewpoint: 26.0°C (79°F) [RH = 89%]
Pressure (altimeter): 29.85 inches Hg (1011.0 mb)
Winds: from the NNE (30 degrees) at 8 MPH (7 knots; 3.6 m/s)
Visibility: 6 or more miles (10+ km)
Ceiling: at least 12,000 feet AGL
Clouds: scattered clouds at 1500 feet AGL
Weather: no significant weather observed at this time

Forecast for: SBMQ (MACAPA INTL AIRP, BR)
Text: TAF SBMQ 142100Z 1500/1524 06008KT 9999 SCT017 TN24/1506Z TX34/1516Z RMK PEU
Forecast period: 0000 UTC 15 August 2020 to 0000 UTC 16 August 2020
Forecast type: FROM: standard forecast or significant change
Winds: from the ENE (60 degrees) at 9 MPH (8 knots; 4.1 m/s)
Visibility: 6 or more miles (10+ km)
Ceiling: at least 12,000 feet AGL
Clouds: scattered clouds at 1700 feet AGL
Weather: no significant weather forecast for this period